createdAt,value
2022-09-23T00:00:30.199Z,986.75
2022-09-23T00:01:30.237Z,986.74
2022-09-23T00:02:30.209Z,986.76
2022-09-23T00:03:30.185Z,986.77
2022-09-23T00:04:30.146Z,986.72
2022-09-23T00:05:30.145Z,986.78
2022-09-23T00:06:30.136Z,986.74
2022-09-23T00:07:30.135Z,986.77
2022-09-23T00:08:30.120Z,986.74
2022-09-23T00:09:30.098Z,986.76
2022-09-23T00:10:30.086Z,986.73
2022-09-23T00:11:30.087Z,986.72
2022-09-23T00:12:30.066Z,986.77
2022-09-23T00:13:30.055Z,986.74
2022-09-23T00:14:30.040Z,986.75
2022-09-23T00:15:30.046Z,986.74
2022-09-23T00:16:30.096Z,986.74
2022-09-23T00:17:30.016Z,986.72
2022-09-23T00:18:30.007Z,986.72
2022-09-23T00:19:29.980Z,986.70
2022-09-23T00:20:30.007Z,986.67
2022-09-23T00:21:29.987Z,986.77
2022-09-23T00:22:29.965Z,986.74
2022-09-23T00:23:29.947Z,986.75
2022-09-23T00:24:29.937Z,986.76
2022-09-23T00:25:29.933Z,986.77
2022-09-23T00:26:29.939Z,986.73
2022-09-23T00:27:29.907Z,986.79
2022-09-23T00:28:29.889Z,986.79
2022-09-23T00:29:29.910Z,986.75
2022-09-23T00:30:29.997Z,986.75
2022-09-23T00:31:29.905Z,986.80
2022-09-23T00:32:29.849Z,986.79
2022-09-23T00:33:29.860Z,986.76
2022-09-23T00:34:29.849Z,986.85
2022-09-23T00:35:29.844Z,986.76
2022-09-23T00:36:29.823Z,986.76
2022-09-23T00:37:29.810Z,986.73
2022-09-23T00:38:29.800Z,986.72
2022-09-23T00:39:29.801Z,986.68
2022-09-23T00:40:29.814Z,986.72
2022-09-23T00:41:29.759Z,986.72
2022-09-23T00:42:29.721Z,986.68
2022-09-23T00:43:29.740Z,986.68
2022-09-23T00:44:29.731Z,986.71
2022-09-23T00:45:29.753Z,986.64
2022-09-23T00:46:29.776Z,986.69
2022-09-23T00:47:29.700Z,986.64
2022-09-23T00:48:29.681Z,986.61
2022-09-23T00:49:29.688Z,986.65
2022-09-23T00:50:29.663Z,986.66
2022-09-23T00:51:29.668Z,986.58
2022-09-23T00:52:29.643Z,986.60
2022-09-23T00:53:29.651Z,986.62
2022-09-23T00:54:29.605Z,986.61
2022-09-23T00:55:29.611Z,986.59
2022-09-23T00:56:29.625Z,986.53
2022-09-23T00:57:29.589Z,986.59
2022-09-23T00:58:29.582Z,986.62
2022-09-23T00:59:29.571Z,986.60
2022-09-23T01:00:29.564Z,986.63
2022-09-23T01:01:30.324Z,986.55
2022-09-23T01:02:29.599Z,986.60
2022-09-23T01:03:29.522Z,986.51
2022-09-23T01:04:29.531Z,986.54
2022-09-23T01:05:29.503Z,986.54
2022-09-23T01:06:29.494Z,986.54
2022-09-23T01:07:29.482Z,986.51
2022-09-23T01:08:29.483Z,986.58
2022-09-23T01:09:29.462Z,986.57
2022-09-23T01:10:29.448Z,986.57
2022-09-23T01:11:29.450Z,986.57
2022-09-23T01:12:29.397Z,986.51
2022-09-23T01:13:29.431Z,986.53
2022-09-23T01:14:29.414Z,986.55
2022-09-23T01:15:29.425Z,986.52
2022-09-23T01:16:29.414Z,986.51
2022-09-23T01:17:29.387Z,986.55
2022-09-23T01:18:29.348Z,986.53
2022-09-23T01:19:29.365Z,986.48
2022-09-23T01:20:29.335Z,986.54
2022-09-23T01:21:29.344Z,986.49
2022-09-23T01:22:29.333Z,986.54
2022-09-23T01:23:29.299Z,986.52
2022-09-23T01:24:29.300Z,986.50
2022-09-23T01:25:29.303Z,986.50
2022-09-23T01:26:29.295Z,986.51
2022-09-23T01:27:29.274Z,986.52
2022-09-23T01:28:29.294Z,986.42
2022-09-23T01:29:29.259Z,986.48
2022-09-23T01:30:29.287Z,986.53
2022-09-23T01:31:29.245Z,986.48
2022-09-23T01:32:29.217Z,986.48
2022-09-23T01:33:29.205Z,986.46
2022-09-23T01:34:29.185Z,986.45
2022-09-23T01:35:29.216Z,986.45
2022-09-23T01:36:29.169Z,986.49
2022-09-23T01:37:29.144Z,986.37
2022-09-23T01:38:29.144Z,986.44
2022-09-23T01:39:29.126Z,986.37
2022-09-23T01:40:29.176Z,986.38
2022-09-23T01:41:29.104Z,986.36
2022-09-23T01:42:29.091Z,986.37
2022-09-23T01:43:29.086Z,986.37
2022-09-23T01:44:29.076Z,986.35
2022-09-23T01:45:29.074Z,986.34
2022-09-23T01:46:29.055Z,986.33
2022-09-23T01:47:29.074Z,986.36
2022-09-23T01:48:29.052Z,986.30
2022-09-23T01:49:29.031Z,986.35
2022-09-23T01:50:29.024Z,986.33
2022-09-23T01:51:28.995Z,986.36
2022-09-23T01:52:29.013Z,986.35
2022-09-23T01:53:28.986Z,986.30
2022-09-23T01:54:28.975Z,986.31
2022-09-23T01:55:28.969Z,986.23
2022-09-23T01:56:28.956Z,986.28
2022-09-23T01:57:28.953Z,986.27
2022-09-23T01:58:28.926Z,986.35
2022-09-23T01:59:28.918Z,986.32
2022-09-23T02:00:28.912Z,986.28
2022-09-23T02:01:28.911Z,986.28
2022-09-23T02:02:28.894Z,986.32
2022-09-23T02:03:28.873Z,986.30
2022-09-23T02:04:28.878Z,986.29
2022-09-23T02:05:28.858Z,986.26
2022-09-23T02:06:28.847Z,986.30
2022-09-23T02:07:28.847Z,986.28
2022-09-23T02:08:28.849Z,986.27
2022-09-23T02:09:28.807Z,986.30
2022-09-23T02:10:28.809Z,986.28
2022-09-23T02:11:28.774Z,986.25
2022-09-23T02:12:28.778Z,986.28
2022-09-23T02:13:28.771Z,986.26
2022-09-23T02:14:28.763Z,986.22
2022-09-23T02:15:28.747Z,986.21
2022-09-23T02:16:28.777Z,986.19
2022-09-23T02:17:28.716Z,986.21
2022-09-23T02:18:28.720Z,986.22
2022-09-23T02:19:28.719Z,986.22
2022-09-23T02:20:28.698Z,986.24
2022-09-23T02:21:28.675Z,986.21
2022-09-23T02:22:28.699Z,986.16
2022-09-23T02:23:28.659Z,986.25
2022-09-23T02:24:28.668Z,986.21
2022-09-23T02:25:28.639Z,986.18
2022-09-23T02:26:28.639Z,986.20
2022-09-23T02:27:28.638Z,986.19
2022-09-23T02:28:28.620Z,986.22
2022-09-23T02:29:28.600Z,986.21
2022-09-23T02:30:28.609Z,986.18
2022-09-23T02:31:28.590Z,986.15
2022-09-23T02:32:28.624Z,986.23
2022-09-23T02:33:28.557Z,986.18
2022-09-23T02:34:28.559Z,986.21
2022-09-23T02:35:28.541Z,986.17
2022-09-23T02:36:28.530Z,986.20
2022-09-23T02:37:28.517Z,986.20
2022-09-23T02:38:28.497Z,986.22
2022-09-23T02:39:28.477Z,986.15
2022-09-23T02:40:28.556Z,986.21
2022-09-23T02:41:28.470Z,986.23
2022-09-23T02:42:28.465Z,986.21
2022-09-23T02:43:28.460Z,986.33
2022-09-23T02:44:28.442Z,986.16
2022-09-23T02:45:28.528Z,986.22
2022-09-23T02:46:28.407Z,986.22
2022-09-23T02:47:28.408Z,986.22
2022-09-23T02:48:28.389Z,986.19
2022-09-23T02:49:28.413Z,986.25
2022-09-23T02:50:28.391Z,986.28
2022-09-23T02:51:28.361Z,986.21
2022-09-23T02:52:28.363Z,986.19
2022-09-23T02:53:28.343Z,986.19
2022-09-23T02:54:28.342Z,986.16
2022-09-23T02:55:28.341Z,986.15
2022-09-23T02:56:28.297Z,986.09
2022-09-23T02:57:28.301Z,986.09
2022-09-23T02:58:28.293Z,986.14
2022-09-23T02:59:28.303Z,986.14
2022-09-23T03:00:28.279Z,986.17
2022-09-23T03:01:28.280Z,986.15
2022-09-23T03:02:28.332Z,986.07
2022-09-23T03:03:28.249Z,986.07
2022-09-23T03:04:28.232Z,986.14
2022-09-23T03:05:28.233Z,986.11
2022-09-23T03:06:28.203Z,986.07
2022-09-23T03:07:28.205Z,986.10
2022-09-23T03:08:28.205Z,986.16
2022-09-23T03:09:28.173Z,986.03
2022-09-23T03:10:28.164Z,986.07
2022-09-23T03:11:28.156Z,986.02
2022-09-23T03:12:28.144Z,986.04
2022-09-23T03:13:29.521Z,986.03
2022-09-23T03:14:28.125Z,985.98
2022-09-23T03:15:28.134Z,986.07
2022-09-23T03:16:28.129Z,986.05
2022-09-23T03:17:28.094Z,986.06
2022-09-23T03:18:28.075Z,986.07
2022-09-23T03:19:28.086Z,986.11
2022-09-23T03:20:28.041Z,986.04
2022-09-23T03:21:28.076Z,986.06
2022-09-23T03:22:28.038Z,986.11
2022-09-23T03:23:28.043Z,986.07
2022-09-23T03:24:28.045Z,986.12
2022-09-23T03:25:28.005Z,986.08
2022-09-23T03:26:27.994Z,986.10
2022-09-23T03:27:27.986Z,986.06
2022-09-23T03:28:27.977Z,986.04
2022-09-23T03:29:27.965Z,986.05
2022-09-23T03:30:27.966Z,986.06
2022-09-23T03:31:28.027Z,986.13
2022-09-23T03:32:27.948Z,986.09
2022-09-23T03:33:28.776Z,986.10
2022-09-23T03:34:27.908Z,986.07
2022-09-23T03:35:27.936Z,986.12
2022-09-23T03:36:27.895Z,986.09
2022-09-23T03:37:27.878Z,986.09
2022-09-23T03:38:27.886Z,986.11
2022-09-23T03:39:27.856Z,986.03
2022-09-23T03:40:27.915Z,986.09
2022-09-23T03:41:27.847Z,986.05
2022-09-23T03:42:27.830Z,986.07
2022-09-23T03:43:27.867Z,986.11
2022-09-23T03:44:27.790Z,986.04
2022-09-23T03:45:27.835Z,986.01
2022-09-23T03:46:27.797Z,985.98
2022-09-23T03:47:27.761Z,985.99
2022-09-23T03:48:27.778Z,985.98
2022-09-23T03:49:27.757Z,985.93
2022-09-23T03:50:27.789Z,985.99
2022-09-23T03:51:27.733Z,985.96
2022-09-23T03:52:27.718Z,985.98
2022-09-23T03:53:27.738Z,985.94
2022-09-23T03:54:27.698Z,985.98
2022-09-23T03:55:27.688Z,986.00
2022-09-23T03:56:27.688Z,985.95
2022-09-23T03:57:27.675Z,985.93
2022-09-23T03:58:27.648Z,985.89
2022-09-23T03:59:27.649Z,985.93
2022-09-23T04:00:27.630Z,985.89
2022-09-23T04:01:27.703Z,985.88
2022-09-23T04:02:27.648Z,985.84
2022-09-23T04:03:27.638Z,985.84
2022-09-23T04:04:27.619Z,985.87
2022-09-23T04:05:27.590Z,985.87
2022-09-23T04:06:27.570Z,985.86
2022-09-23T04:07:27.559Z,985.79
2022-09-23T04:08:27.550Z,985.80
2022-09-23T04:09:27.577Z,985.77
2022-09-23T04:10:27.516Z,985.77
2022-09-23T04:11:27.658Z,985.74
2022-09-23T04:12:27.510Z,985.83
2022-09-23T04:13:27.500Z,985.78
2022-09-23T04:14:27.509Z,985.79
2022-09-23T04:15:27.467Z,985.72
2022-09-23T04:16:27.501Z,985.71
2022-09-23T04:17:27.479Z,985.76
2022-09-23T04:18:27.435Z,985.71
2022-09-23T04:19:27.480Z,985.71
2022-09-23T04:20:27.440Z,985.73
2022-09-23T04:21:27.421Z,985.72
2022-09-23T04:22:27.401Z,985.73
2022-09-23T04:23:27.505Z,985.69
2022-09-23T04:24:27.419Z,985.70
2022-09-23T04:25:27.412Z,985.71
2022-09-23T04:26:27.361Z,985.65
2022-09-23T04:27:27.355Z,985.68
2022-09-23T04:28:27.347Z,985.68
2022-09-23T04:29:27.353Z,985.65
2022-09-23T04:30:27.311Z,985.66
2022-09-23T04:31:27.379Z,985.68
2022-09-23T04:32:27.292Z,985.64
2022-09-23T04:33:27.305Z,985.65
2022-09-23T04:34:27.266Z,985.58
2022-09-23T04:35:27.928Z,985.62
2022-09-23T04:36:27.942Z,985.65
2022-09-23T04:37:27.962Z,985.59
2022-09-23T04:38:27.253Z,985.70
2022-09-23T04:39:27.245Z,985.69
2022-09-23T04:40:28.334Z,985.65
2022-09-23T04:41:27.232Z,985.66
2022-09-23T04:42:27.202Z,985.70
2022-09-23T04:43:27.223Z,985.65
2022-09-23T04:44:27.174Z,985.61
2022-09-23T04:45:27.163Z,985.67
2022-09-23T04:46:27.216Z,985.71
2022-09-23T04:47:27.131Z,985.69
2022-09-23T04:48:27.124Z,985.72
2022-09-23T04:49:27.130Z,985.74
2022-09-23T04:50:27.103Z,985.73
2022-09-23T04:51:27.093Z,985.73
2022-09-23T04:52:27.085Z,985.71
2022-09-23T04:53:27.060Z,985.71
2022-09-23T04:54:27.064Z,985.72
2022-09-23T04:55:27.069Z,985.72
2022-09-23T04:56:27.060Z,985.69
2022-09-23T04:57:27.021Z,985.72
2022-09-23T04:58:27.035Z,985.73
2022-09-23T04:59:27.025Z,985.75
2022-09-23T05:00:27.008Z,985.75
2022-09-23T05:01:27.290Z,985.72
2022-09-23T05:02:27.120Z,985.77
2022-09-23T05:03:26.972Z,985.72
2022-09-23T05:04:28.456Z,985.80
2022-09-23T05:05:27.058Z,985.78
2022-09-23T05:06:27.174Z,985.73
2022-09-23T05:07:27.005Z,985.80
2022-09-23T05:08:27.955Z,985.81
2022-09-23T05:09:26.924Z,985.83
2022-09-23T05:10:28.395Z,985.79
2022-09-23T05:11:26.965Z,985.83
2022-09-23T05:12:27.681Z,985.83
2022-09-23T05:13:26.876Z,985.82
2022-09-23T05:14:27.556Z,985.82
2022-09-23T05:15:26.855Z,985.87
2022-09-23T05:16:27.583Z,985.90
2022-09-23T05:17:26.832Z,985.86
2022-09-23T05:18:27.190Z,985.87
2022-09-23T05:19:26.823Z,985.91
2022-09-23T05:20:26.977Z,985.89
2022-09-23T05:21:26.783Z,985.91
2022-09-23T05:22:26.767Z,985.95
2022-09-23T05:23:26.767Z,985.92
2022-09-23T05:24:26.753Z,985.92
2022-09-23T05:25:26.723Z,985.90
2022-09-23T05:26:26.749Z,985.90
2022-09-23T05:27:26.827Z,985.92
2022-09-23T05:28:26.714Z,985.93
2022-09-23T05:29:26.717Z,985.93
2022-09-23T05:30:26.728Z,985.87
2022-09-23T05:31:26.747Z,985.90
2022-09-23T05:32:26.657Z,985.90
2022-09-23T05:33:26.649Z,985.87
2022-09-23T05:34:26.687Z,985.90
2022-09-23T05:35:26.640Z,985.86
2022-09-23T05:36:26.631Z,985.91
2022-09-23T05:37:26.618Z,985.88
2022-09-23T05:38:26.639Z,985.84
2022-09-23T05:39:26.574Z,985.86
2022-09-23T05:40:26.670Z,985.90
2022-09-23T05:41:26.605Z,985.90
2022-09-23T05:42:26.557Z,985.90
2022-09-23T05:43:26.655Z,985.93
2022-09-23T05:44:26.522Z,985.95
2022-09-23T05:45:27.456Z,985.93
2022-09-23T05:46:26.542Z,985.93
2022-09-23T05:47:27.209Z,985.99
2022-09-23T05:48:26.572Z,985.92
2022-09-23T05:49:42.841Z,985.91
2022-09-23T05:50:27.499Z,985.95
2022-09-23T05:51:30.768Z,985.89
2022-09-23T05:52:26.458Z,985.93
2022-09-23T05:53:27.146Z,985.92
2022-09-23T05:54:26.695Z,985.96
2022-09-23T05:55:26.607Z,986.00
2022-09-23T05:56:26.410Z,985.94
2022-09-23T05:57:27.110Z,985.99
2022-09-23T05:58:26.390Z,985.96
2022-09-23T05:59:27.060Z,985.95
2022-09-23T06:00:26.390Z,985.95
2022-09-23T06:01:26.740Z,985.93
2022-09-23T06:02:26.363Z,985.89
2022-09-23T06:03:27.923Z,985.81
2022-09-23T06:04:26.471Z,985.88
2022-09-23T06:05:26.310Z,985.89
2022-09-23T06:06:26.311Z,985.85
2022-09-23T06:07:26.298Z,985.98
2022-09-23T06:08:26.281Z,985.85
2022-09-23T06:09:26.311Z,985.85
2022-09-23T06:10:26.254Z,985.80
2022-09-23T06:11:26.281Z,985.80
2022-09-23T06:12:26.243Z,985.86
2022-09-23T06:13:26.224Z,985.82
2022-09-23T06:14:26.221Z,985.84
2022-09-23T06:15:26.198Z,985.91
2022-09-23T06:16:26.209Z,985.88
2022-09-23T06:17:26.186Z,985.89
2022-09-23T06:18:26.203Z,985.87
2022-09-23T06:19:26.167Z,985.77
2022-09-23T06:20:26.157Z,985.84
2022-09-23T06:21:26.155Z,985.77
2022-09-23T06:22:26.123Z,985.79
2022-09-23T06:23:26.768Z,985.81
2022-09-23T06:24:31.039Z,985.77
2022-09-23T06:25:27.108Z,985.77
2022-09-23T06:26:26.093Z,985.76
2022-09-23T06:27:26.085Z,985.71
2022-09-23T06:28:26.065Z,985.72
2022-09-23T06:29:26.084Z,985.72
2022-09-23T06:30:26.053Z,985.72
2022-09-23T06:31:26.077Z,985.72
2022-09-23T06:32:26.043Z,985.69
2022-09-23T06:33:35.037Z,985.74
2022-09-23T06:34:27.004Z,985.72
2022-09-23T06:35:27.705Z,985.72
2022-09-23T06:36:40.858Z,985.80
2022-09-23T06:37:26.979Z,985.76
2022-09-23T06:38:25.946Z,985.71
2022-09-23T06:39:25.974Z,985.71
2022-09-23T06:40:26.015Z,985.70
2022-09-23T06:41:25.947Z,985.78
2022-09-23T06:42:25.914Z,985.72
2022-09-23T06:43:25.901Z,985.72
2022-09-23T06:44:25.915Z,985.75
2022-09-23T06:45:25.886Z,985.77
2022-09-23T06:46:25.920Z,985.79
2022-09-23T06:47:25.865Z,985.77
2022-09-23T06:48:25.849Z,985.83
2022-09-23T06:49:25.855Z,985.81
2022-09-23T06:50:25.868Z,985.76
2022-09-23T06:51:25.819Z,985.78
2022-09-23T06:52:25.806Z,985.80
2022-09-23T06:53:25.792Z,985.77
2022-09-23T06:54:25.784Z,985.76
2022-09-23T06:55:25.776Z,985.80
2022-09-23T06:56:25.757Z,985.77
2022-09-23T06:57:25.775Z,985.82
2022-09-23T06:58:25.738Z,985.82
2022-09-23T06:59:25.736Z,985.84
2022-09-23T07:00:25.727Z,985.82
2022-09-23T07:01:25.732Z,985.84
2022-09-23T07:02:25.803Z,985.74
2022-09-23T07:03:25.735Z,985.77
2022-09-23T07:04:29.257Z,985.81
2022-09-23T07:05:25.678Z,985.80
2022-09-23T07:06:25.677Z,985.79
2022-09-23T07:07:25.635Z,985.82
2022-09-23T07:08:25.628Z,985.76
2022-09-23T07:09:25.648Z,985.77
2022-09-23T07:10:25.664Z,985.74
2022-09-23T07:11:25.618Z,985.76
2022-09-23T07:12:25.598Z,985.75
2022-09-23T07:13:25.565Z,985.76
2022-09-23T07:14:25.578Z,985.77
2022-09-23T07:15:25.558Z,985.83
2022-09-23T07:16:25.618Z,985.83
2022-09-23T07:17:25.539Z,985.80
2022-09-23T07:18:25.554Z,985.84
2022-09-23T07:19:25.529Z,985.82
2022-09-23T07:20:25.513Z,985.78
2022-09-23T07:21:25.515Z,985.79
2022-09-23T07:22:25.490Z,985.75
2022-09-23T07:23:25.479Z,985.77
2022-09-23T07:24:25.480Z,985.78
2022-09-23T07:25:25.450Z,985.80
2022-09-23T07:26:25.461Z,985.77
2022-09-23T07:27:25.427Z,985.77
2022-09-23T07:28:25.459Z,985.77
2022-09-23T07:29:25.480Z,985.80
2022-09-23T07:30:25.704Z,985.75
2022-09-23T07:31:37.545Z,985.78
2022-09-23T07:32:26.861Z,985.77
2022-09-23T07:33:32.255Z,985.78
2022-09-23T07:34:26.361Z,985.80
2022-09-23T07:35:25.327Z,985.75
2022-09-23T07:36:25.351Z,985.78
2022-09-23T07:37:25.322Z,985.84
2022-09-23T07:38:25.318Z,985.83
2022-09-23T07:39:25.303Z,985.81
2022-09-23T07:40:25.364Z,985.81
2022-09-23T07:41:25.293Z,985.80
2022-09-23T07:42:25.283Z,985.82
2022-09-23T07:43:25.263Z,985.83
2022-09-23T07:44:25.261Z,985.83
2022-09-23T07:45:25.243Z,985.82
2022-09-23T07:46:25.309Z,985.75
2022-09-23T07:47:25.223Z,985.75
2022-09-23T07:48:25.212Z,985.78
2022-09-23T07:49:25.200Z,985.71
2022-09-23T07:50:25.196Z,985.73
2022-09-23T07:51:25.194Z,985.74
2022-09-23T07:52:25.172Z,985.77
2022-09-23T07:53:25.153Z,985.72
2022-09-23T07:54:25.168Z,985.71
2022-09-23T07:55:25.135Z,985.72
2022-09-23T07:56:25.145Z,985.71
2022-09-23T07:57:25.124Z,985.72
2022-09-23T07:58:25.103Z,985.73
2022-09-23T07:59:25.115Z,985.77
2022-09-23T08:00:25.084Z,985.78
2022-09-23T08:01:25.126Z,985.74
2022-09-23T08:02:25.119Z,985.76
2022-09-23T08:03:25.045Z,985.72
2022-09-23T08:04:25.041Z,985.65
2022-09-23T08:05:25.026Z,985.64
2022-09-23T08:06:25.026Z,985.69
2022-09-23T08:07:25.006Z,985.69
2022-09-23T08:08:24.997Z,985.64
2022-09-23T08:09:25.004Z,985.73
2022-09-23T08:10:24.978Z,985.77
2022-09-23T08:11:24.978Z,985.74
2022-09-23T08:12:24.956Z,985.74
2022-09-23T08:13:24.947Z,985.75
2022-09-23T08:14:24.938Z,985.76
2022-09-23T08:15:24.958Z,985.75
2022-09-23T08:16:24.945Z,985.76
2022-09-23T08:17:24.909Z,985.80
2022-09-23T08:18:24.895Z,985.80
2022-09-23T08:19:24.897Z,985.79
2022-09-23T08:20:24.878Z,985.82
2022-09-23T08:21:24.844Z,985.77
2022-09-23T08:22:24.869Z,985.83
2022-09-23T08:23:24.842Z,985.83
2022-09-23T08:24:24.830Z,985.80
2022-09-23T08:25:24.839Z,985.79
2022-09-23T08:26:24.819Z,985.74
2022-09-23T08:27:24.796Z,985.76
2022-09-23T08:28:24.819Z,985.79
2022-09-23T08:29:24.778Z,985.82
2022-09-23T08:30:24.769Z,985.75
2022-09-23T08:31:24.786Z,985.78
2022-09-23T08:32:24.761Z,985.79
2022-09-23T08:33:24.751Z,985.76
2022-09-23T08:34:24.720Z,985.75
2022-09-23T08:35:24.710Z,985.74
2022-09-23T08:36:24.711Z,985.73
2022-09-23T08:37:24.701Z,985.70
2022-09-23T08:38:24.681Z,985.69
2022-09-23T08:39:24.662Z,985.70
2022-09-23T08:40:24.689Z,985.78
2022-09-23T08:41:24.650Z,985.76
2022-09-23T08:42:24.642Z,985.75
2022-09-23T08:43:24.608Z,985.76
2022-09-23T08:44:24.633Z,985.73
2022-09-23T08:45:24.590Z,985.71
2022-09-23T08:46:24.655Z,985.71
2022-09-23T08:47:24.607Z,985.79
2022-09-23T08:48:24.559Z,985.74
2022-09-23T08:49:24.554Z,985.66
2022-09-23T08:50:24.564Z,985.72
2022-09-23T08:51:24.533Z,985.65
2022-09-23T08:52:24.552Z,985.65
2022-09-23T08:53:24.514Z,985.70
2022-09-23T08:54:24.539Z,985.64
2022-09-23T08:55:24.494Z,985.67
2022-09-23T08:56:24.502Z,985.65
2022-09-23T08:57:24.474Z,985.70
2022-09-23T08:58:25.930Z,985.63
2022-09-23T08:59:24.454Z,985.61
2022-09-23T09:00:24.444Z,985.66
2022-09-23T09:01:24.488Z,985.64
2022-09-23T09:02:24.451Z,985.65
2022-09-23T09:03:24.529Z,985.65
2022-09-23T09:04:24.407Z,985.62
2022-09-23T09:05:24.405Z,985.68
2022-09-23T09:06:24.386Z,985.66
2022-09-23T09:07:36.150Z,985.70
2022-09-23T09:08:25.356Z,985.70
2022-09-23T09:09:24.347Z,985.73
2022-09-23T09:10:24.357Z,985.69
2022-09-23T09:11:24.317Z,985.66
2022-09-23T09:12:24.303Z,985.69
2022-09-23T09:13:24.299Z,985.67
2022-09-23T09:14:24.297Z,985.65
2022-09-23T09:15:25.433Z,985.63
2022-09-23T09:16:42.078Z,985.53
2022-09-23T09:17:25.278Z,985.57
2022-09-23T09:18:24.243Z,985.56
2022-09-23T09:19:24.237Z,985.54
2022-09-23T09:20:24.230Z,985.52
2022-09-23T09:21:24.219Z,985.47
2022-09-23T09:22:24.250Z,985.55
2022-09-23T09:23:24.195Z,985.54
2022-09-23T09:24:24.200Z,985.58
2022-09-23T09:25:24.172Z,985.51
2022-09-23T09:26:24.179Z,985.58
2022-09-23T09:27:24.151Z,985.55
2022-09-23T09:28:24.162Z,985.55
2022-09-23T09:29:34.748Z,985.53
2022-09-23T09:30:25.121Z,985.51
2022-09-23T09:31:24.264Z,985.55
2022-09-23T09:32:24.101Z,985.53
2022-09-23T09:33:24.116Z,985.48
2022-09-23T09:34:24.093Z,985.52
2022-09-23T09:35:24.073Z,985.44
2022-09-23T09:36:24.076Z,985.45
2022-09-23T09:37:24.044Z,985.42
2022-09-23T09:38:24.054Z,985.43
2022-09-23T09:39:26.230Z,985.45
2022-09-23T09:40:24.056Z,985.46
2022-09-23T09:41:23.988Z,985.47
2022-09-23T09:42:23.988Z,985.42
2022-09-23T09:43:24.000Z,985.38
2022-09-23T09:44:23.973Z,985.40
2022-09-23T09:45:23.984Z,985.40
2022-09-23T09:46:24.097Z,985.40
2022-09-23T09:47:23.931Z,985.33
2022-09-23T09:48:23.934Z,985.34
2022-09-23T09:49:23.916Z,985.28
2022-09-23T09:50:23.923Z,985.30
2022-09-23T09:51:23.904Z,985.22
2022-09-23T09:52:23.885Z,985.27
2022-09-23T09:53:23.829Z,985.26
2022-09-23T09:54:23.821Z,985.21
2022-09-23T09:55:23.831Z,985.22
2022-09-23T09:56:23.804Z,985.24
2022-09-23T09:57:23.779Z,985.25
2022-09-23T09:58:23.758Z,985.19
2022-09-23T09:59:23.789Z,985.17
2022-09-23T10:00:23.750Z,985.17
2022-09-23T10:01:23.786Z,985.08
2022-09-23T10:02:23.733Z,985.07
2022-09-23T10:03:23.711Z,985.11
2022-09-23T10:04:23.741Z,985.14
2022-09-23T10:05:23.713Z,985.11
2022-09-23T10:06:23.689Z,985.12
2022-09-23T10:07:23.669Z,985.12
2022-09-23T10:08:23.679Z,985.10
2022-09-23T10:09:23.649Z,985.14
2022-09-23T10:10:32.296Z,985.11
2022-09-23T10:11:24.638Z,985.09
2022-09-23T10:12:23.618Z,985.13
2022-09-23T10:13:23.620Z,985.10
2022-09-23T10:14:23.596Z,985.09
2022-09-23T10:15:23.579Z,985.14
2022-09-23T10:16:23.648Z,985.13
2022-09-23T10:17:23.560Z,985.05
2022-09-23T10:18:23.550Z,985.10
2022-09-23T10:19:23.551Z,985.10
2022-09-23T10:20:23.530Z,985.05
2022-09-23T10:21:27.774Z,985.01
2022-09-23T10:22:23.494Z,984.99
2022-09-23T10:23:23.489Z,984.99
2022-09-23T10:24:23.499Z,984.97
2022-09-23T10:25:23.474Z,984.96
2022-09-23T10:26:23.459Z,984.95
2022-09-23T10:27:23.517Z,985.03
2022-09-23T10:28:23.460Z,984.95
2022-09-23T10:29:23.430Z,985.00
2022-09-23T10:30:23.436Z,984.98
2022-09-23T10:31:23.433Z,984.99
2022-09-23T10:32:23.404Z,984.99
2022-09-23T10:33:23.369Z,985.00
2022-09-23T10:34:23.381Z,984.91
2022-09-23T10:35:23.363Z,984.95
2022-09-23T10:36:23.349Z,984.96
2022-09-23T10:37:23.344Z,984.98
2022-09-23T10:38:23.336Z,984.95
2022-09-23T10:39:23.326Z,984.99
2022-09-23T10:40:23.342Z,984.96
2022-09-23T10:41:23.302Z,984.91
2022-09-23T10:42:23.309Z,984.91
2022-09-23T10:43:23.300Z,984.85
2022-09-23T10:44:23.281Z,984.89
2022-09-23T10:45:23.261Z,984.89
2022-09-23T10:46:23.315Z,984.88
2022-09-23T10:47:23.243Z,984.83
2022-09-23T10:48:23.253Z,984.86
2022-09-23T10:49:23.234Z,984.78
2022-09-23T10:50:23.224Z,984.76
2022-09-23T10:51:26.124Z,984.71
2022-09-23T10:52:23.196Z,984.74
2022-09-23T10:53:23.184Z,984.72
2022-09-23T10:54:23.233Z,984.73
2022-09-23T10:55:23.144Z,984.78
2022-09-23T10:56:23.160Z,984.70
2022-09-23T10:57:23.141Z,984.73
2022-09-23T10:58:23.132Z,984.75
2022-09-23T10:59:23.163Z,984.70
2022-09-23T11:00:23.237Z,984.71
2022-09-23T11:01:23.152Z,984.68
2022-09-23T11:02:23.099Z,984.72
2022-09-23T11:03:23.083Z,984.66
2022-09-23T11:04:23.126Z,984.69
2022-09-23T11:05:23.082Z,984.71
2022-09-23T11:06:23.066Z,984.66
2022-09-23T11:07:23.046Z,984.66
2022-09-23T11:08:23.013Z,984.62
2022-09-23T11:09:23.017Z,984.64
2022-09-23T11:10:42.217Z,984.64
2022-09-23T11:11:24.009Z,984.61
2022-09-23T11:12:22.990Z,984.63
2022-09-23T11:13:22.990Z,984.54
2022-09-23T11:14:22.971Z,984.59
2022-09-23T11:15:22.960Z,984.61
2022-09-23T11:16:22.996Z,984.64
2022-09-23T11:17:22.933Z,984.52
2022-09-23T11:18:22.932Z,984.54
2022-09-23T11:19:22.924Z,984.50
2022-09-23T11:20:22.904Z,984.54
2022-09-23T11:21:22.905Z,984.56
2022-09-23T11:22:22.906Z,984.49
2022-09-23T11:23:22.887Z,984.52
2022-09-23T11:24:22.895Z,984.52
2022-09-23T11:25:22.848Z,984.50
2022-09-23T11:26:22.939Z,984.44
2022-09-23T11:27:22.857Z,984.43
2022-09-23T11:28:22.821Z,984.40
2022-09-23T11:29:22.810Z,984.41
2022-09-23T11:30:22.854Z,984.36
2022-09-23T11:31:22.912Z,984.39
2022-09-23T11:32:22.788Z,984.33
2022-09-23T11:33:22.781Z,984.34
2022-09-23T11:34:22.762Z,984.33
2022-09-23T11:35:22.773Z,984.28
2022-09-23T11:36:22.743Z,984.23
2022-09-23T11:37:22.733Z,984.30
2022-09-23T11:38:22.734Z,984.18
2022-09-23T11:39:22.718Z,984.22
2022-09-23T11:40:22.765Z,984.19
2022-09-23T11:41:22.686Z,984.15
2022-09-23T11:42:22.677Z,984.20
2022-09-23T11:43:22.686Z,984.16
2022-09-23T11:44:22.667Z,984.24
2022-09-23T11:45:22.648Z,984.17
2022-09-23T11:46:22.706Z,984.11
2022-09-23T11:47:22.631Z,984.15
2022-09-23T11:48:22.610Z,984.19
2022-09-23T11:49:22.610Z,984.14
2022-09-23T11:50:22.591Z,984.15
2022-09-23T11:51:22.581Z,984.19
2022-09-23T11:52:22.591Z,984.18
2022-09-23T11:53:22.572Z,984.10
2022-09-23T11:54:22.538Z,984.01
2022-09-23T11:55:23.434Z,984.06
2022-09-23T11:56:32.216Z,984.00
2022-09-23T11:57:23.523Z,983.98
2022-09-23T11:58:25.869Z,984.02
2022-09-23T11:59:34.363Z,984.01
2022-09-23T12:00:23.485Z,984.01
2022-09-23T12:01:33.153Z,983.98
2022-09-23T12:02:27.002Z,983.98
2022-09-23T12:03:31.746Z,983.98
2022-09-23T12:04:24.299Z,983.93
2022-09-23T12:05:22.507Z,983.90
2022-09-23T12:06:22.437Z,983.96
2022-09-23T12:07:22.452Z,983.97
2022-09-23T12:08:22.414Z,983.96
2022-09-23T12:09:40.987Z,983.94
2022-09-23T12:10:23.390Z,983.99
2022-09-23T12:11:22.381Z,983.91
2022-09-23T12:12:26.861Z,983.96
2022-09-23T12:13:22.354Z,983.94
2022-09-23T12:14:22.342Z,983.88
2022-09-23T12:15:22.353Z,983.90
2022-09-23T12:16:22.435Z,983.87
2022-09-23T12:17:22.321Z,983.85
2022-09-23T12:18:23.281Z,983.81
2022-09-23T12:19:22.296Z,983.73
2022-09-23T12:20:22.289Z,983.77
2022-09-23T12:21:46.239Z,983.81
2022-09-23T12:22:23.549Z,983.77
2022-09-23T12:23:22.278Z,983.72
2022-09-23T12:24:22.252Z,983.76
2022-09-23T12:25:22.232Z,983.79
2022-09-23T12:26:22.230Z,983.76
2022-09-23T12:27:22.221Z,983.85
2022-09-23T12:28:22.492Z,983.78